首页
METAR-TAF:

METAR-TAF

机场 :

史密斯堡, 阿肯色州, 美国

纬度: 35-20-01N, 经度: 094-21-54W, 海拔: 142米

当前天气观测

该预报发布于9分钟前的03:53 UTC
静风
温度 28°C
湿度 70%
气压 1012 hPa
能見度: 16.1公里
天空无云

METAR: KFSM 170353Z 00000KT 10SM CLR 28/22 A2988 RMK AO2 SLP111 T02780217

时间: 23:02 (04:02 UTC)

预报

该预报发布于4小时和29分钟前的23:33 UTC
预报有效从17日的 00点(UTC)到 17日的 24点(UTC)
风速4节,风向
能見度: 10公里
天空无云
从 17日的 1500点(UTC)
风速10节,风向东南
能見度: 10公里
散云层高于4500英尺

TAF: KFSM 162333Z 1700/1724 08004KT P6SM SKC FM171500 14010KT P6SM SCT045

超过4000个机场的气象观测和天气预报(METAR&TAF报告)。

可查询的气象台以黄色和红色小点在地图上表示。

将鼠标移到小点上方,可查看气象台名称。

然后点击查看天气观测和预报。

如需切换地图:点击带黑十字的绿色按钮放大地图;点击带横线的绿色按钮缩小地图;或者点击绿色箭头查看邻近地区的地图。


METAR-TAF: